createdAt,value
2019-02-20T05:57:56.324Z,0.00
2019-02-20T06:00:56.299Z,0.00
2019-02-20T06:05:56.254Z,4.00
2019-02-20T06:06:56.226Z,4.00
2019-02-20T06:07:56.230Z,4.00
2019-02-20T06:08:56.218Z,4.00
2019-02-20T06:09:56.296Z,4.00
2019-02-20T06:10:56.186Z,8.00
2019-02-20T06:11:56.187Z,8.00
2019-02-20T06:12:56.163Z,12.00
2019-02-20T06:13:56.151Z,12.00
2019-02-20T06:14:56.141Z,12.00
2019-02-20T06:15:56.624Z,16.00
2019-02-20T06:16:56.129Z,16.00
2019-02-20T06:17:56.104Z,20.00
2019-02-20T06:18:56.102Z,24.00
2019-02-20T06:19:56.083Z,28.00
2019-02-20T06:20:56.075Z,32.00
2019-02-20T06:21:56.072Z,40.00
2019-02-20T06:22:56.058Z,44.00
2019-02-20T06:23:56.035Z,48.00
2019-02-20T06:24:56.034Z,60.00
2019-02-20T06:25:56.036Z,64.00
2019-02-20T06:26:56.013Z,76.00
2019-02-20T06:27:56.002Z,84.00
2019-02-20T06:28:55.993Z,96.00
2019-02-20T06:29:55.986Z,108.00
2019-02-20T06:30:56.204Z,124.00
2019-02-20T06:31:55.987Z,136.00
2019-02-20T06:32:55.971Z,152.00
2019-02-20T06:33:56.071Z,172.00
2019-02-20T06:34:55.957Z,192.00
2019-02-20T06:35:55.916Z,212.00
2019-02-20T06:36:55.894Z,232.00
2019-02-20T06:37:58.587Z,252.00
2019-02-20T06:38:55.885Z,268.00
2019-02-20T06:39:55.894Z,292.00
2019-02-20T06:40:55.901Z,316.00
2019-02-20T06:41:55.881Z,336.00
2019-02-20T06:42:55.866Z,364.00
2019-02-20T06:43:55.821Z,392.00
2019-02-20T06:44:55.821Z,424.00
2019-02-20T06:45:55.845Z,452.00
2019-02-20T06:46:55.895Z,480.00
2019-02-20T06:47:55.797Z,512.00
2019-02-20T06:48:55.821Z,536.00
2019-02-20T06:49:55.818Z,568.00
2019-02-20T06:50:55.854Z,600.00
2019-02-20T06:51:55.872Z,636.00
2019-02-20T07:00:24.045Z,1044.00
2019-02-20T07:01:24.027Z,1112.00
2019-02-20T07:02:24.036Z,1172.00
2019-02-20T07:03:24.008Z,1216.00
2019-02-20T07:04:23.994Z,1260.00
2019-02-20T07:05:23.993Z,1316.00
2019-02-20T07:06:23.976Z,1380.00
2019-02-20T07:07:23.971Z,1452.00
2019-02-20T07:08:23.955Z,1520.00
2019-02-20T07:09:23.938Z,1564.00
2019-02-20T07:10:23.951Z,1612.00
2019-02-20T07:11:23.923Z,1656.00
2019-02-20T07:12:23.930Z,1700.00
2019-02-20T07:13:23.906Z,1748.00
2019-02-20T07:14:23.885Z,1788.00
2019-02-20T07:15:23.878Z,1824.00
2019-02-20T07:16:23.868Z,1856.00
2019-02-20T07:17:23.865Z,1892.00
2019-02-20T07:18:23.875Z,1936.00
2019-02-20T07:19:23.838Z,1980.00
2019-02-20T07:20:23.813Z,2024.00
2019-02-20T07:21:23.825Z,2052.00
2019-02-20T07:22:23.792Z,2080.00
2019-02-20T07:23:23.778Z,2128.00
2019-02-20T07:25:02.961Z,2232.00
2019-02-20T07:25:58.951Z,2304.00
2019-02-20T07:26:58.926Z,2384.00
2019-02-20T07:27:59.323Z,2468.00
2019-02-20T07:28:58.927Z,2556.00
2019-02-20T07:29:58.898Z,2640.00
2019-02-20T07:30:58.889Z,2732.00
2019-02-20T07:31:58.889Z,2836.00
2019-02-20T07:32:58.903Z,2940.00
2019-02-20T07:33:58.849Z,3056.00
2019-02-20T07:34:58.850Z,3168.00
2019-02-20T07:35:58.836Z,3260.00
2019-02-20T07:36:58.819Z,3352.00
2019-02-20T07:37:58.794Z,3428.00
2019-02-20T07:38:58.798Z,3484.00
2019-02-20T07:39:58.797Z,3540.00
2019-02-20T07:40:58.793Z,3568.00
2019-02-20T07:41:58.808Z,3596.00
2019-02-20T07:42:58.747Z,3636.00
2019-02-20T07:43:58.733Z,3680.00
2019-02-20T07:44:58.924Z,3704.00
2019-02-20T07:45:58.889Z,3692.00
2019-02-20T07:46:58.703Z,3684.00
2019-02-20T07:47:58.702Z,3728.00
2019-02-20T07:48:58.682Z,3764.00
2019-02-20T07:49:58.664Z,3808.00
2019-02-20T07:50:58.688Z,3864.00
2019-02-20T07:51:58.642Z,3904.00
2019-02-20T07:52:58.799Z,3956.00
2019-02-20T07:53:58.625Z,4024.00
2019-02-20T07:54:58.629Z,4080.00
2019-02-20T07:55:58.613Z,4084.00
2019-02-20T07:56:59.582Z,4080.00
2019-02-20T07:57:58.590Z,4060.00
2019-02-20T07:58:58.637Z,4028.00
2019-02-20T07:59:58.556Z,4012.00
2019-02-20T08:00:58.543Z,4008.00
2019-02-20T08:01:58.540Z,3976.00
2019-02-20T08:02:58.585Z,3932.00
2019-02-20T08:03:58.521Z,3880.00
2019-02-20T08:04:58.559Z,3888.00
2019-02-20T08:05:58.514Z,3904.00
2019-02-20T08:06:59.622Z,3896.00
2019-02-20T08:07:58.509Z,3872.00
2019-02-20T08:08:58.449Z,3848.00
2019-02-20T08:09:58.465Z,3836.00
2019-02-20T08:10:58.451Z,3824.00
2019-02-20T08:11:58.442Z,3804.00
2019-02-20T08:12:58.414Z,3812.00
2019-02-20T08:13:58.414Z,3808.00
2019-02-20T08:14:58.394Z,3848.00
2019-02-20T08:15:58.830Z,3908.00
2019-02-20T08:16:58.369Z,3976.00
2019-02-20T08:17:58.390Z,4148.00
2019-02-20T08:18:58.361Z,4272.00
2019-02-20T08:19:58.354Z,4392.00
2019-02-20T08:20:58.325Z,4540.00
2019-02-20T08:21:58.326Z,4680.00
2019-02-20T08:22:58.328Z,4784.00
2019-02-20T08:23:58.299Z,4880.00
2019-02-20T08:24:58.297Z,5008.00
2019-02-20T08:25:59.733Z,5108.00
2019-02-20T08:26:58.254Z,5252.00
2019-02-20T08:27:58.306Z,5396.00
2019-02-20T08:28:58.247Z,5524.00
2019-02-20T08:29:58.235Z,5584.00
2019-02-20T08:30:58.231Z,5588.00
2019-02-20T08:31:58.315Z,5524.00
2019-02-20T08:32:58.209Z,5412.00
2019-02-20T08:33:58.187Z,5228.00
2019-02-20T08:34:58.169Z,5052.00
2019-02-20T08:35:58.169Z,4916.00
2019-02-20T08:36:58.196Z,4744.00
2019-02-20T08:37:58.148Z,4584.00
2019-02-20T08:38:58.154Z,4420.00
2019-02-20T08:39:58.175Z,4340.00
2019-02-20T08:40:58.114Z,4312.00
2019-02-20T08:41:58.094Z,4268.00
2019-02-20T08:42:58.105Z,4224.00
2019-02-20T08:43:58.087Z,4184.00
2019-02-20T08:44:58.080Z,4124.00
2019-02-20T08:45:58.081Z,4064.00
2019-02-20T08:46:58.050Z,3996.00
2019-02-20T08:47:58.029Z,3976.00
2019-02-20T08:48:58.044Z,3996.00
2019-02-20T08:49:58.026Z,4004.00
2019-02-20T08:50:57.997Z,4024.00
2019-02-20T08:51:57.997Z,4092.00
2019-02-20T08:52:58.012Z,4184.00
2019-02-20T08:53:57.980Z,4164.00
2019-02-20T08:54:57.960Z,4292.00
2019-02-20T08:55:57.944Z,4356.00
2019-02-20T08:56:57.956Z,4496.00
2019-02-20T08:57:57.931Z,4628.00
2019-02-20T08:58:57.914Z,4752.00
2019-02-20T08:59:57.898Z,4872.00
2019-02-20T09:00:57.885Z,4968.00
2019-02-20T09:01:57.882Z,5088.00
2019-02-20T09:02:57.880Z,5256.00
2019-02-20T09:03:57.950Z,5432.00
2019-02-20T09:04:57.851Z,5628.00
2019-02-20T09:05:57.838Z,5764.00
2019-02-20T09:06:57.828Z,5912.00
2019-02-20T09:07:57.833Z,6012.00
2019-02-20T09:08:57.844Z,6064.00
2019-02-20T09:09:57.855Z,6072.00
2019-02-20T09:10:57.800Z,6092.00
2019-02-20T09:11:57.791Z,6096.00
2019-02-20T09:12:57.879Z,6060.00
2019-02-20T09:13:57.745Z,6036.00
2019-02-20T09:14:57.764Z,6048.00
2019-02-20T09:15:57.734Z,5984.00
2019-02-20T09:16:57.727Z,5924.00
2019-02-20T09:17:57.745Z,5920.00
2019-02-20T09:18:57.732Z,5916.00
2019-02-20T09:19:57.698Z,5944.00
2019-02-20T09:20:57.690Z,6052.00
2019-02-20T09:21:57.699Z,6244.00
2019-02-20T09:22:57.659Z,6484.00
2019-02-20T09:23:57.686Z,6800.00
2019-02-20T09:24:57.638Z,7016.00
2019-02-20T09:25:57.632Z,7200.00
2019-02-20T09:26:57.813Z,7324.00
2019-02-20T09:27:57.596Z,7252.00
2019-02-20T09:28:57.710Z,7100.00
2019-02-20T09:29:57.577Z,6928.00
2019-02-20T09:30:57.575Z,6740.00
2019-02-20T09:31:57.561Z,6656.00
2019-02-20T09:32:57.561Z,6576.00
2019-02-20T09:33:57.535Z,6468.00
2019-02-20T09:34:57.580Z,6344.00
2019-02-20T09:35:58.334Z,6244.00
2019-02-20T09:36:57.509Z,6148.00
2019-02-20T09:37:57.508Z,5996.00
2019-02-20T09:38:57.506Z,5956.00
2019-02-20T09:39:57.503Z,5872.00
2019-02-20T09:40:57.944Z,5700.00
2019-02-20T09:41:57.458Z,5700.00
2019-02-20T09:42:57.432Z,5772.00
2019-02-20T09:43:57.429Z,5904.00
2019-02-20T09:44:57.473Z,6112.00
2019-02-20T09:45:57.423Z,6260.00
2019-02-20T09:46:57.392Z,6368.00
2019-02-20T09:47:57.392Z,6432.00
2019-02-20T09:48:57.401Z,6580.00
2019-02-20T09:49:57.368Z,6748.00
2019-02-20T09:50:57.406Z,6772.00
2019-02-20T09:51:57.329Z,6720.00
2019-02-20T09:52:57.330Z,6788.00
2019-02-20T09:53:57.312Z,6732.00
2019-02-20T09:54:57.317Z,6636.00
2019-02-20T09:55:57.316Z,6504.00
2019-02-20T09:56:57.289Z,6448.00
2019-02-20T09:57:57.350Z,6428.00
2019-02-20T09:58:57.256Z,6296.00
2019-02-20T09:59:57.254Z,6224.00
2019-02-20T10:00:58.669Z,6236.00
2019-02-20T10:01:57.988Z,6256.00
2019-02-20T10:02:57.298Z,6264.00
2019-02-20T10:03:57.217Z,6336.00
2019-02-20T10:04:57.217Z,6320.00
2019-02-20T10:05:57.190Z,6276.00
2019-02-20T10:06:57.172Z,6176.00
2019-02-20T10:07:57.224Z,6100.00
2019-02-20T10:08:57.164Z,6008.00
2019-02-20T10:09:57.148Z,5920.00
2019-02-20T10:10:57.151Z,5760.00
2019-02-20T10:11:57.121Z,5572.00
2019-02-20T10:12:57.116Z,5380.00
2019-02-20T10:13:57.093Z,5304.00
2019-02-20T10:14:57.098Z,5164.00
2019-02-20T10:15:58.926Z,5072.00
2019-02-20T10:16:57.062Z,4836.00
2019-02-20T10:17:57.064Z,4752.00
2019-02-20T10:18:57.055Z,4848.00
2019-02-20T10:19:57.036Z,4688.00
2019-02-20T10:20:57.026Z,4668.00
2019-02-20T10:21:57.020Z,4564.00
2019-02-20T10:22:56.996Z,4728.00
2019-02-20T10:23:56.994Z,4644.00
2019-02-20T10:24:56.998Z,4476.00
2019-02-20T10:26:00.865Z,4416.00
2019-02-20T10:27:00.611Z,4268.00
2019-02-20T10:27:56.968Z,4404.00
2019-02-20T10:28:56.965Z,4408.00
2019-02-20T10:29:56.916Z,4524.00
2019-02-20T10:30:56.914Z,4564.00
2019-02-20T10:31:56.916Z,4796.00
2019-02-20T10:32:56.906Z,4716.00
2019-02-20T10:33:56.894Z,4688.00
2019-02-20T10:34:56.919Z,4720.00
2019-02-20T10:35:56.858Z,4892.00
2019-02-20T10:36:56.839Z,5016.00
2019-02-20T10:37:56.832Z,5080.00
2019-02-20T10:38:56.834Z,5372.00
2019-02-20T10:39:57.188Z,5608.00
2019-02-20T10:40:56.830Z,5944.00
2019-02-20T10:41:56.805Z,5972.00
2019-02-20T10:42:56.789Z,5848.00
2019-02-20T10:43:56.785Z,5676.00
2019-02-20T10:44:56.754Z,5732.00
2019-02-20T10:45:56.753Z,5896.00
2019-02-20T10:46:56.733Z,6104.00
2019-02-20T10:47:56.746Z,6416.00
2019-02-20T10:48:57.758Z,6652.00
2019-02-20T10:49:56.701Z,6840.00
2019-02-20T10:50:56.697Z,7012.00
2019-02-20T10:51:56.682Z,7128.00
2019-02-20T10:52:56.681Z,7232.00
2019-02-20T10:53:56.677Z,7328.00
2019-02-20T10:54:57.960Z,7384.00
2019-02-20T10:55:56.658Z,7420.00
2019-02-20T10:56:57.464Z,7444.00
2019-02-20T10:57:56.634Z,7428.00
2019-02-20T10:58:56.614Z,7460.00
2019-02-20T10:59:56.608Z,7528.00
2019-02-20T11:01:00.205Z,7624.00
2019-02-20T11:01:56.629Z,7688.00
2019-02-20T11:02:56.710Z,7728.00
2019-02-20T11:03:57.147Z,7676.00
2019-02-20T11:04:56.563Z,7580.00
2019-02-20T11:05:56.531Z,7548.00
2019-02-20T11:06:56.528Z,7536.00
2019-02-20T11:07:58.449Z,7416.00
2019-02-20T11:08:56.612Z,7340.00
2019-02-20T11:09:56.499Z,7224.00
2019-02-20T11:10:56.509Z,7008.00
2019-02-20T11:11:56.466Z,6732.00
2019-02-20T11:14:53.820Z,6628.00
2019-02-20T11:15:53.855Z,6672.00
2019-02-20T11:16:53.841Z,6732.00
2019-02-20T11:17:53.792Z,6376.00
2019-02-20T11:18:54.380Z,6196.00
2019-02-20T11:19:53.776Z,6260.00
2019-02-20T11:22:45.759Z,6080.00
2019-02-20T11:23:45.719Z,6164.00
2019-02-20T11:24:45.728Z,6120.00
2019-02-20T11:25:45.970Z,6204.00
2019-02-20T11:26:54.060Z,6564.00
2019-02-20T11:28:10.915Z,7032.00
2019-02-20T11:29:10.866Z,7904.00
2019-02-20T11:30:10.846Z,8740.00
2019-02-20T11:31:11.133Z,8388.00
2019-02-20T11:32:11.027Z,8408.00
2019-02-20T11:33:10.809Z,8288.00
2019-02-20T11:34:10.794Z,8404.00
2019-02-20T11:35:12.022Z,8804.00
2019-02-20T11:36:10.799Z,9112.00
2019-02-20T11:37:10.783Z,9192.00
2019-02-20T11:38:10.777Z,9224.00
2019-02-20T11:39:11.771Z,9276.00
2019-02-20T11:40:10.750Z,8844.00
2019-02-20T11:41:10.728Z,8660.00
2019-02-20T11:42:10.734Z,8752.00
2019-02-20T11:43:10.706Z,8480.00
2019-02-20T11:44:10.687Z,7852.00
2019-02-20T11:45:17.210Z,7720.00
2019-02-20T11:46:35.701Z,7976.00
2019-02-20T11:47:35.696Z,8144.00
2019-02-20T11:48:35.683Z,8848.00
2019-02-20T11:49:35.666Z,9644.00
2019-02-20T11:50:35.764Z,9660.00
2019-02-20T11:51:35.658Z,9560.00
2019-02-20T11:52:38.349Z,9040.00
2019-02-20T11:53:37.430Z,8428.00
2019-02-20T11:54:35.709Z,8248.00
2019-02-20T11:55:35.648Z,7900.00
2019-02-20T11:56:35.595Z,7612.00
2019-02-20T11:57:35.576Z,7568.00
2019-02-20T11:58:35.621Z,7584.00
2019-02-20T11:59:35.560Z,7824.00
2019-02-20T12:00:35.566Z,7804.00
2019-02-20T12:01:35.530Z,7616.00
2019-02-20T12:02:37.558Z,7476.00
2019-02-20T12:03:35.522Z,7312.00
2019-02-20T12:04:35.500Z,7356.00
2019-02-20T12:05:35.494Z,7232.00
2019-02-20T12:06:35.481Z,6512.00
2019-02-20T12:07:35.561Z,6192.00
2019-02-20T12:08:35.549Z,6284.00
2019-02-20T12:09:35.452Z,6664.00
2019-02-20T12:10:36.699Z,7156.00
2019-02-20T12:11:35.421Z,7892.00
2019-02-20T12:12:35.438Z,8584.00
2019-02-20T12:13:35.401Z,8896.00
2019-02-20T12:14:36.066Z,8856.00
2019-02-20T12:15:35.378Z,9308.00
2019-02-20T12:16:35.368Z,9948.00
2019-02-20T12:17:35.368Z,9536.00
2019-02-20T12:18:35.460Z,8892.00
2019-02-20T12:19:35.339Z,8708.00
2019-02-20T12:20:35.336Z,8332.00
2019-02-20T12:21:35.323Z,7700.00
2019-02-20T12:22:35.414Z,7428.00
2019-02-20T12:23:36.882Z,7244.00
2019-02-20T12:24:35.393Z,7188.00
2019-02-20T12:25:35.294Z,7400.00
2019-02-20T12:26:35.486Z,7520.00
2019-02-20T12:27:35.271Z,7812.00
2019-02-20T12:28:35.300Z,8312.00
2019-02-20T12:29:35.247Z,8612.00
2019-02-20T12:30:35.224Z,9204.00
2019-02-20T12:31:35.421Z,9808.00
2019-02-20T12:32:35.204Z,9888.00
2019-02-20T12:33:35.207Z,9788.00
2019-02-20T12:34:35.202Z,9976.00
2019-02-20T12:35:35.228Z,9856.00
2019-02-20T12:36:35.153Z,10112.00
2019-02-20T12:37:35.169Z,10696.00
2019-02-20T12:38:37.109Z,10632.00
2019-02-20T12:39:35.122Z,10004.00
2019-02-20T12:40:35.238Z,9320.00
2019-02-20T12:41:35.196Z,9020.00
2019-02-20T12:42:35.087Z,9024.00
2019-02-20T12:43:35.090Z,9380.00
2019-02-20T12:44:35.072Z,9912.00
2019-02-20T12:45:35.069Z,10224.00
2019-02-20T12:46:35.127Z,10084.00
2019-02-20T12:47:35.041Z,9940.00
2019-02-20T12:48:35.029Z,10436.00
2019-02-20T12:49:35.037Z,10936.00
2019-02-20T12:50:35.007Z,11000.00
2019-02-20T12:51:34.992Z,11280.00
2019-02-20T12:52:34.976Z,11816.00
2019-02-20T12:53:35.029Z,11632.00
2019-02-20T12:54:34.961Z,11324.00
2019-02-20T12:55:34.970Z,11296.00
2019-02-20T12:56:34.957Z,11004.00
2019-02-20T12:57:34.923Z,10732.00
2019-02-20T12:58:34.930Z,10156.00
2019-02-20T12:59:36.673Z,9840.00
2019-02-20T13:00:34.895Z,9848.00
2019-02-20T13:01:34.884Z,10076.00
2019-02-20T13:02:36.120Z,10468.00
2019-02-20T13:03:34.924Z,11128.00
2019-02-20T13:04:34.890Z,11200.00
2019-02-20T13:05:34.910Z,10876.00
2019-02-20T13:06:35.373Z,10472.00
2019-02-20T13:07:34.853Z,10204.00
2019-02-20T13:08:34.811Z,9936.00
2019-02-20T13:09:34.792Z,9560.00
2019-02-20T13:10:38.516Z,9240.00
2019-02-20T13:11:34.772Z,8980.00
2019-02-20T13:12:34.776Z,8764.00
2019-02-20T13:13:34.754Z,8596.00
2019-02-20T13:14:34.734Z,8500.00
2019-02-20T13:15:34.748Z,8480.00
2019-02-20T13:16:34.731Z,8500.00
2019-02-20T13:17:34.708Z,8536.00
2019-02-20T13:18:34.717Z,8556.00
2019-02-20T13:19:34.694Z,8488.00
2019-02-20T13:20:34.738Z,8428.00
2019-02-20T13:21:34.666Z,8420.00
2019-02-20T13:22:34.663Z,8396.00
2019-02-20T14:05:06.768Z,6280.00
2019-02-20T14:10:46.814Z,6400.00
2019-02-20T14:11:46.788Z,6492.00
2019-02-20T14:12:47.102Z,6572.00
2019-02-20T14:13:46.902Z,6676.00
2019-02-20T14:14:46.782Z,6736.00
2019-02-20T14:15:46.751Z,6740.00
2019-02-20T14:16:46.736Z,6688.00
2019-02-20T14:17:46.736Z,6664.00
2019-02-20T14:18:46.718Z,6652.00
2019-02-20T14:19:46.712Z,6632.00
2019-02-20T14:20:46.721Z,6644.00
2019-02-20T14:21:46.706Z,6640.00
2019-02-20T14:22:46.695Z,6616.00
2019-02-20T14:23:46.664Z,6468.00
2019-02-20T14:24:46.661Z,6228.00
2019-02-20T14:25:46.658Z,6084.00
2019-02-20T14:26:46.639Z,5884.00
2019-02-20T14:27:46.674Z,5732.00
2019-02-20T14:28:46.631Z,5580.00
2019-02-20T14:29:46.603Z,5512.00
2019-02-20T14:30:46.614Z,5508.00
2019-02-20T14:31:46.576Z,5432.00
2019-02-20T14:32:46.574Z,5256.00
2019-02-20T14:33:46.578Z,5104.00
2019-02-20T14:34:46.559Z,5060.00
2019-02-20T14:35:46.533Z,4980.00
2019-02-20T14:36:46.529Z,4896.00
2019-02-20T14:37:46.519Z,4864.00
2019-02-20T14:38:46.526Z,4912.00
2019-02-20T14:39:46.495Z,5016.00
2019-02-20T14:40:46.503Z,5040.00
2019-02-20T14:41:46.467Z,4948.00
2019-02-20T14:42:46.477Z,4912.00
2019-02-20T14:43:46.475Z,4824.00
2019-02-20T14:44:46.440Z,4760.00
2019-02-20T14:45:46.429Z,4668.00
2019-02-20T14:46:46.419Z,4640.00
2019-02-20T14:47:46.425Z,4656.00
2019-02-20T14:48:47.378Z,4668.00
2019-02-20T14:49:46.390Z,4680.00
2019-02-20T14:50:46.386Z,4752.00
2019-02-20T14:51:46.364Z,4844.00
2019-02-20T14:52:46.343Z,4888.00
2019-02-20T14:53:46.380Z,4928.00
2019-02-20T14:54:46.326Z,4992.00
2019-02-20T14:55:46.327Z,5080.00
2019-02-20T14:56:46.367Z,5132.00
2019-02-20T14:57:46.315Z,5164.00
2019-02-20T14:58:46.403Z,5188.00
2019-02-20T14:59:46.269Z,5196.00
2019-02-20T15:00:46.272Z,5108.00
2019-02-20T15:01:46.253Z,5060.00
2019-02-20T15:02:46.241Z,5020.00
2019-02-20T15:03:46.245Z,4944.00
2019-02-20T15:04:46.223Z,4908.00
2019-02-20T15:05:47.961Z,4968.00
2019-02-20T15:06:46.189Z,5084.00
2019-02-20T15:07:46.178Z,5164.00
2019-02-20T15:08:46.210Z,5236.00
2019-02-20T15:09:47.351Z,5292.00
2019-02-20T15:10:46.161Z,5388.00
2019-02-20T15:11:46.145Z,5460.00
2019-02-20T15:12:46.754Z,5536.00
2019-02-20T15:13:46.115Z,5616.00
2019-02-20T15:14:47.609Z,5656.00
2019-02-20T15:15:47.469Z,5608.00
2019-02-20T15:16:46.113Z,5480.00
2019-02-20T15:17:46.068Z,5316.00
2019-02-20T15:18:46.067Z,5168.00
2019-02-20T15:19:46.056Z,5024.00
2019-02-20T15:20:46.047Z,4920.00
2019-02-20T15:21:46.037Z,4852.00
2019-02-20T15:22:46.046Z,4812.00
2019-02-20T15:23:46.025Z,4768.00
2019-02-20T15:24:46.011Z,4708.00
2019-02-20T15:25:45.988Z,4648.00
2019-02-20T15:26:46.110Z,4580.00
2019-02-20T15:27:45.959Z,4500.00
2019-02-20T15:28:45.972Z,4380.00
2019-02-20T15:29:45.943Z,4272.00
2019-02-20T15:30:45.931Z,4168.00
2019-02-20T15:31:45.924Z,4064.00
2019-02-20T15:32:45.909Z,3972.00
2019-02-20T15:33:45.943Z,3888.00
2019-02-20T15:34:45.887Z,3824.00
2019-02-20T15:35:45.878Z,3780.00
2019-02-20T15:36:45.871Z,3732.00
2019-02-20T15:37:45.856Z,3684.00
2019-02-20T15:38:45.842Z,3636.00
2019-02-20T15:39:45.830Z,3584.00
2019-02-20T15:40:45.830Z,3556.00
2019-02-20T15:41:45.814Z,3536.00
2019-02-20T15:42:45.823Z,3536.00
2019-02-20T15:43:45.845Z,3544.00
2019-02-20T15:44:45.780Z,3548.00
2019-02-20T15:45:45.799Z,3536.00
2019-02-20T15:46:45.799Z,3528.00
2019-02-20T15:47:45.745Z,3540.00
2019-02-20T15:48:45.726Z,3560.00
2019-02-20T15:49:45.730Z,3580.00
2019-02-20T15:50:45.715Z,3592.00
2019-02-20T15:51:45.699Z,3584.00
2019-02-20T15:52:45.701Z,3568.00
2019-02-20T15:53:45.790Z,3516.00
2019-02-20T15:54:45.719Z,3444.00
2019-02-20T15:55:45.662Z,3368.00
2019-02-20T15:56:45.642Z,3304.00
2019-02-20T15:57:45.634Z,3244.00
2019-02-20T15:58:45.663Z,3188.00
2019-02-20T15:59:45.607Z,3132.00
2019-02-20T16:00:45.613Z,3084.00
2019-02-20T16:01:45.596Z,3036.00
2019-02-20T16:02:45.584Z,2988.00
2019-02-20T16:03:45.584Z,2936.00
2019-02-20T16:04:45.558Z,2880.00
2019-02-20T16:05:45.561Z,2832.00
2019-02-20T16:06:45.538Z,2772.00
2019-02-20T16:07:45.524Z,2704.00
2019-02-20T16:08:45.520Z,2632.00
2019-02-20T16:09:45.496Z,2564.00
2019-02-20T16:10:45.617Z,2504.00
2019-02-20T16:11:45.485Z,2444.00
2019-02-20T16:12:45.481Z,2396.00
2019-02-20T16:13:45.477Z,2344.00
2019-02-20T16:14:45.476Z,2296.00
2019-02-20T16:15:45.435Z,2248.00
2019-02-20T16:16:45.537Z,2200.00
2019-02-20T16:17:45.463Z,2148.00
2019-02-20T16:18:45.416Z,2088.00
2019-02-20T16:19:45.392Z,2036.00
2019-02-20T16:20:45.393Z,1984.00
2019-02-20T16:21:45.385Z,1924.00
2019-02-20T16:22:45.378Z,1864.00
2019-02-20T16:23:45.349Z,1788.00
2019-02-20T16:24:45.335Z,1716.00
2019-02-20T16:25:45.331Z,1644.00
2019-02-20T16:26:45.426Z,1576.00
2019-02-20T16:27:47.443Z,1508.00
2019-02-20T16:28:45.304Z,1444.00
2019-02-20T16:29:45.285Z,1376.00
2019-02-20T16:30:45.282Z,1312.00
2019-02-20T16:31:45.312Z,1256.00
2019-02-20T16:32:45.257Z,1216.00
2019-02-20T16:33:45.300Z,1172.00
2019-02-20T16:34:45.231Z,1116.00
2019-02-20T16:35:45.247Z,1056.00
2019-02-20T16:36:45.213Z,988.00
2019-02-20T16:37:45.205Z,940.00
2019-02-20T16:38:45.205Z,896.00
2019-02-20T16:39:45.182Z,848.00
2019-02-20T16:40:45.172Z,792.00
2019-02-20T16:41:45.169Z,744.00
2019-02-20T16:42:45.216Z,700.00
2019-02-20T16:43:45.222Z,664.00
2019-02-20T16:44:45.714Z,628.00
2019-02-20T16:45:45.108Z,584.00
2019-02-20T16:46:45.139Z,544.00
2019-02-20T16:47:45.091Z,512.00
2019-02-20T16:48:45.078Z,476.00
2019-02-20T16:49:45.068Z,452.00
2019-02-20T16:50:45.076Z,420.00
2019-02-20T16:51:45.059Z,388.00
2019-02-20T16:52:45.040Z,356.00
2019-02-20T16:53:45.026Z,324.00
2019-02-20T16:54:45.043Z,296.00
2019-02-20T16:55:45.004Z,268.00
2019-02-20T16:56:44.996Z,244.00
2019-02-20T16:57:45.049Z,228.00
2019-02-20T16:58:44.985Z,208.00
2019-02-20T16:59:44.969Z,192.00
2019-02-20T17:00:44.949Z,172.00
2019-02-20T17:01:44.941Z,156.00
2019-02-20T17:02:44.931Z,140.00
2019-02-20T17:03:44.921Z,124.00
2019-02-20T17:04:44.911Z,112.00
2019-02-20T17:05:44.915Z,100.00
2019-02-20T17:06:44.894Z,88.00
2019-02-20T17:07:44.870Z,76.00
2019-02-20T17:08:44.889Z,68.00
2019-02-20T17:09:44.849Z,56.00
2019-02-20T17:10:44.843Z,48.00
2019-02-20T17:11:44.833Z,44.00
2019-02-20T17:12:44.832Z,36.00
2019-02-20T17:13:44.830Z,32.00
2019-02-20T17:14:44.800Z,28.00
2019-02-20T17:15:44.784Z,20.00
2019-02-20T17:16:44.777Z,16.00
2019-02-20T17:17:44.784Z,12.00
2019-02-20T17:18:44.774Z,12.00
2019-02-20T17:19:44.825Z,12.00
2019-02-20T17:20:44.737Z,8.00
2019-02-20T17:21:46.053Z,8.00
2019-02-20T17:22:44.715Z,4.00
2019-02-20T17:23:44.697Z,4.00
2019-02-20T17:24:44.695Z,4.00
2019-02-20T17:25:44.675Z,4.00
2019-02-20T17:27:44.651Z,4.00
2019-02-20T17:28:44.654Z,4.00
2019-02-20T17:29:44.637Z,4.00
2019-02-20T18:27:09.444Z,40.00
2019-02-20T20:11:08.332Z,0.00
2019-02-20T20:12:08.306Z,0.00
2019-02-20T20:19:08.326Z,0.00
2019-02-20T20:40:07.980Z,0.00
2019-02-20T20:41:09.173Z,0.00
2019-02-20T20:43:07.976Z,0.00
2019-02-20T20:46:07.929Z,0.00
2019-02-20T20:47:07.907Z,0.00
2019-02-20T20:48:11.995Z,0.00
2019-02-20T20:52:07.861Z,0.00
2019-02-20T20:53:07.864Z,0.00
2019-02-20T20:55:07.831Z,0.00
2019-02-20T20:56:07.807Z,0.00
2019-02-20T20:57:07.801Z,0.00
2019-02-20T20:58:07.786Z,0.00
2019-02-20T20:59:17.225Z,0.00
2019-02-20T21:00:32.658Z,0.00
2019-02-20T21:01:32.645Z,0.00
2019-02-20T21:02:32.630Z,0.00
2019-02-20T21:03:32.622Z,0.00
2019-02-20T21:04:32.615Z,0.00
2019-02-20T21:05:32.596Z,0.00
2019-02-20T21:06:32.583Z,0.00
2019-02-20T21:07:32.570Z,0.00
2019-02-20T21:08:32.570Z,0.00
2019-02-20T21:09:32.549Z,0.00
2019-02-20T21:10:32.552Z,0.00
2019-02-20T21:11:32.541Z,0.00
2019-02-20T21:12:32.519Z,0.00
2019-02-20T21:13:34.773Z,0.00
2019-02-20T21:14:32.501Z,0.00
2019-02-20T21:15:32.500Z,0.00
2019-02-20T21:16:32.535Z,0.00
2019-02-20T21:17:32.462Z,0.00
2019-02-20T21:18:32.452Z,0.00
2019-02-20T21:19:32.466Z,0.00
2019-02-20T21:20:32.432Z,0.00
2019-02-20T21:21:32.434Z,0.00
2019-02-20T21:22:32.417Z,0.00
2019-02-20T21:23:32.415Z,0.00
2019-02-20T21:24:32.388Z,0.00
2019-02-20T21:25:32.383Z,0.00
2019-02-20T21:26:32.367Z,0.00
2019-02-20T21:27:32.353Z,0.00
2019-02-20T21:28:32.345Z,0.00
2019-02-20T21:29:32.348Z,0.00
2019-02-20T21:30:32.555Z,0.00
2019-02-20T21:31:32.319Z,0.00
2019-02-20T21:32:32.301Z,0.00
2019-02-20T21:33:32.285Z,0.00
2019-02-20T21:34:32.279Z,0.00
2019-02-20T21:35:32.262Z,0.00
2019-02-20T21:37:32.247Z,0.00
2019-02-20T21:38:32.237Z,0.00
2019-02-20T21:39:32.236Z,0.00
2019-02-20T21:40:32.243Z,0.00
2019-02-20T21:41:32.210Z,0.00
2019-02-20T21:42:32.190Z,0.00
2019-02-20T21:43:32.198Z,0.00
2019-02-20T21:44:32.173Z,0.00
2019-02-20T21:45:32.154Z,0.00
2019-02-20T21:46:32.161Z,0.00
2019-02-20T21:47:32.147Z,0.00
2019-02-20T21:48:32.126Z,0.00
2019-02-20T21:49:32.135Z,0.00
2019-02-20T21:50:32.104Z,0.00
2019-02-20T21:51:32.186Z,0.00
2019-02-20T21:52:32.097Z,0.00
2019-02-20T21:53:32.078Z,0.00
2019-02-20T21:54:32.090Z,0.00
2019-02-20T21:55:32.100Z,0.00
2019-02-20T21:56:32.035Z,0.00
2019-02-20T21:57:32.027Z,0.00
2019-02-20T21:58:33.152Z,0.00
2019-02-20T21:59:38.934Z,0.00
2019-02-20T22:00:56.995Z,0.00
2019-02-20T22:01:56.921Z,0.00
2019-02-20T22:02:56.911Z,0.00
2019-02-20T22:03:56.898Z,0.00
2019-02-20T22:04:56.886Z,0.00
2019-02-20T22:05:58.493Z,0.00
2019-02-20T22:07:56.855Z,0.00
2019-02-20T22:08:56.846Z,0.00
2019-02-20T22:09:58.401Z,0.00
2019-02-20T22:10:56.818Z,0.00
2019-02-20T22:11:56.807Z,0.00
2019-02-20T22:12:56.806Z,0.00
2019-02-20T22:13:56.783Z,0.00
2019-02-20T22:14:56.776Z,0.00
2019-02-20T22:15:56.782Z,0.00
2019-02-20T22:16:56.752Z,0.00
2019-02-20T22:17:56.747Z,0.00
2019-02-20T22:18:56.739Z,0.00
2019-02-20T22:19:56.799Z,0.00
2019-02-20T22:20:56.724Z,0.00
2019-02-20T22:21:56.706Z,0.00
2019-02-20T22:22:56.694Z,0.00
2019-02-20T22:23:56.673Z,0.00
2019-02-20T22:24:56.679Z,0.00
2019-02-20T22:25:56.649Z,0.00
2019-02-20T22:26:56.647Z,0.00
2019-02-20T22:27:56.631Z,0.00
2019-02-20T22:28:56.633Z,0.00
2019-02-20T22:29:56.625Z,0.00
2019-02-20T22:30:56.609Z,0.00
2019-02-20T22:31:56.593Z,0.00
2019-02-20T22:32:56.572Z,0.00
2019-02-20T22:33:56.573Z,0.00
2019-02-20T22:34:56.570Z,0.00
2019-02-20T22:35:56.546Z,0.00
2019-02-20T22:36:56.539Z,0.00
2019-02-20T22:37:56.522Z,0.00
2019-02-20T22:38:56.515Z,0.00